Preview of NWS' New Version of Forecast
This preview is not operational and should not be used for support decisions.

Terminal Aerodrome Forecast (TAF)

Issued by National Weather Service (NWS)

                            
000
FTUS45 KBOI 230202 AAA
TAFMYL
TAF AMD
KMYL 230202Z 2302/2324 35006KT P6SM SKC
     FM232100 24007KT P6SM SKC=